sensor_id;sensor_type;location;lat;lon;timestamp;P1;durP1;ratioP1;P2;durP2;ratioP2
23119;SDS011;11729;50.836;4.330;2023-12-20T00:01:36;4.50;;;4.30;;
23119;SDS011;11729;50.836;4.330;2023-12-20T00:04:02;4.50;;;4.30;;
23119;SDS011;11729;50.836;4.330;2023-12-20T00:06:30;4.60;;;4.40;;
23119;SDS011;11729;50.836;4.330;2023-12-20T00:08:56;4.47;;;4.28;;
23119;SDS011;11729;50.836;4.330;2023-12-20T00:11:23;4.40;;;4.20;;
23119;SDS011;11729;50.836;4.330;2023-12-20T00:13:50;4.45;;;4.25;;
23119;SDS011;11729;50.836;4.330;2023-12-20T00:16:16;4.45;;;4.25;;
23119;SDS011;11729;50.836;4.330;2023-12-20T00:18:41;4.30;;;4.10;;
23119;SDS011;11729;50.836;4.330;2023-12-20T00:21:07;4.40;;;4.20;;
23119;SDS011;11729;50.836;4.330;2023-12-20T00:23:33;4.40;;;4.20;;
23119;SDS011;11729;50.836;4.330;2023-12-20T00:25:58;4.55;;;4.35;;
23119;SDS011;11729;50.836;4.330;2023-12-20T00:28:24;4.50;;;4.30;;
23119;SDS011;11729;50.836;4.330;2023-12-20T00:30:49;5.07;;;4.88;;
23119;SDS011;11729;50.836;4.330;2023-12-20T00:33:15;4.50;;;4.30;;
23119;SDS011;11729;50.836;4.330;2023-12-20T00:35:41;4.82;;;4.63;;
23119;SDS011;11729;50.836;4.330;2023-12-20T00:38:06;4.60;;;4.40;;
23119;SDS011;11729;50.836;4.330;2023-12-20T00:40:33;4.40;;;4.20;;
23119;SDS011;11729;50.836;4.330;2023-12-20T00:42:59;4.40;;;4.20;;
23119;SDS011;11729;50.836;4.330;2023-12-20T00:45:25;4.50;;;4.30;;
23119;SDS011;11729;50.836;4.330;2023-12-20T00:47:51;4.55;;;4.35;;
23119;SDS011;11729;50.836;4.330;2023-12-20T00:50:16;5.00;;;4.75;;
23119;SDS011;11729;50.836;4.330;2023-12-20T00:52:42;4.60;;;4.40;;
23119;SDS011;11729;50.836;4.330;2023-12-20T00:55:08;4.50;;;4.30;;
23119;SDS011;11729;50.836;4.330;2023-12-20T00:57:35;4.47;;;4.28;;
23119;SDS011;11729;50.836;4.330;2023-12-20T01:00:00;5.07;;;4.88;;
23119;SDS011;11729;50.836;4.330;2023-12-20T01:02:26;4.60;;;4.40;;
23119;SDS011;11729;50.836;4.330;2023-12-20T01:04:52;4.30;;;4.10;;
23119;SDS011;11729;50.836;4.330;2023-12-20T01:07:18;4.50;;;4.30;;
23119;SDS011;11729;50.836;4.330;2023-12-20T01:09:44;4.55;;;4.35;;
23119;SDS011;11729;50.836;4.330;2023-12-20T01:12:09;4.60;;;4.40;;
23119;SDS011;11729;50.836;4.330;2023-12-20T01:14:35;4.60;;;4.40;;
23119;SDS011;11729;50.836;4.330;2023-12-20T01:17:01;4.53;;;4.32;;
23119;SDS011;11729;50.836;4.330;2023-12-20T01:19:27;6.03;;;5.40;;
23119;SDS011;11729;50.836;4.330;2023-12-20T01:21:55;4.70;;;4.50;;
23119;SDS011;11729;50.836;4.330;2023-12-20T01:24:20;4.70;;;4.50;;
23119;SDS011;11729;50.836;4.330;2023-12-20T01:26:46;4.60;;;4.40;;
23119;SDS011;11729;50.836;4.330;2023-12-20T01:29:13;4.80;;;4.60;;
23119;SDS011;11729;50.836;4.330;2023-12-20T01:31:40;4.60;;;4.40;;
23119;SDS011;11729;50.836;4.330;2023-12-20T01:34:06;4.68;;;4.47;;
23119;SDS011;11729;50.836;4.330;2023-12-20T01:36:33;4.60;;;4.40;;
23119;SDS011;11729;50.836;4.330;2023-12-20T01:38:59;4.63;;;4.43;;
23119;SDS011;11729;50.836;4.330;2023-12-20T01:41:24;4.80;;;4.60;;
23119;SDS011;11729;50.836;4.330;2023-12-20T01:43:50;4.80;;;4.60;;
23119;SDS011;11729;50.836;4.330;2023-12-20T01:46:18;4.97;;;4.78;;
23119;SDS011;11729;50.836;4.330;2023-12-20T01:48:45;4.70;;;4.50;;
23119;SDS011;11729;50.836;4.330;2023-12-20T01:51:12;7.65;;;6.90;;
23119;SDS011;11729;50.836;4.330;2023-12-20T01:53:38;4.78;;;4.57;;
23119;SDS011;11729;50.836;4.330;2023-12-20T01:56:06;4.85;;;4.65;;
23119;SDS011;11729;50.836;4.330;2023-12-20T02:01:03;4.97;;;4.78;;
23119;SDS011;11729;50.836;4.330;2023-12-20T02:03:29;5.07;;;4.88;;
23119;SDS011;11729;50.836;4.330;2023-12-20T02:05:54;4.72;;;4.53;;
23119;SDS011;11729;50.836;4.330;2023-12-20T02:08:20;4.70;;;4.50;;
23119;SDS011;11729;50.836;4.330;2023-12-20T02:10:46;4.63;;;4.43;;
23119;SDS011;11729;50.836;4.330;2023-12-20T02:13:13;4.60;;;4.40;;
23119;SDS011;11729;50.836;4.330;2023-12-20T02:15:39;4.80;;;4.60;;
23119;SDS011;11729;50.836;4.330;2023-12-20T02:18:07;4.88;;;4.68;;
23119;SDS011;11729;50.836;4.330;2023-12-20T02:20:33;5.28;;;5.07;;
23119;SDS011;11729;50.836;4.330;2023-12-20T02:22:58;4.65;;;4.45;;
23119;SDS011;11729;50.836;4.330;2023-12-20T02:25:24;4.50;;;4.30;;
23119;SDS011;11729;50.836;4.330;2023-12-20T02:27:51;4.60;;;4.40;;
23119;SDS011;11729;50.836;4.330;2023-12-20T02:30:17;5.18;;;4.97;;
23119;SDS011;11729;50.836;4.330;2023-12-20T02:32:43;4.70;;;4.50;;
23119;SDS011;11729;50.836;4.330;2023-12-20T02:35:09;4.80;;;4.60;;
23119;SDS011;11729;50.836;4.330;2023-12-20T02:37:35;4.70;;;4.50;;
23119;SDS011;11729;50.836;4.330;2023-12-20T02:40:01;4.70;;;4.50;;
23119;SDS011;11729;50.836;4.330;2023-12-20T02:42:26;4.72;;;4.53;;
23119;SDS011;11729;50.836;4.330;2023-12-20T02:44:52;4.50;;;4.30;;
23119;SDS011;11729;50.836;4.330;2023-12-20T02:47:17;4.70;;;4.50;;
23119;SDS011;11729;50.836;4.330;2023-12-20T02:49:43;4.50;;;4.30;;
23119;SDS011;11729;50.836;4.330;2023-12-20T02:52:09;4.60;;;4.40;;
23119;SDS011;11729;50.836;4.330;2023-12-20T02:54:34;4.60;;;4.40;;
23119;SDS011;11729;50.836;4.330;2023-12-20T02:57:00;4.60;;;4.40;;
23119;SDS011;11729;50.836;4.330;2023-12-20T02:59:26;5.00;;;4.80;;
23119;SDS011;11729;50.836;4.330;2023-12-20T03:01:51;4.55;;;4.35;;
23119;SDS011;11729;50.836;4.330;2023-12-20T03:04:18;4.72;;;4.53;;
23119;SDS011;11729;50.836;4.330;2023-12-20T03:06:44;4.60;;;4.40;;
23119;SDS011;11729;50.836;4.330;2023-12-20T03:09:09;4.50;;;4.30;;
23119;SDS011;11729;50.836;4.330;2023-12-20T03:11:35;4.50;;;4.30;;
23119;SDS011;11729;50.836;4.330;2023-12-20T03:14:01;4.53;;;4.32;;
23119;SDS011;11729;50.836;4.330;2023-12-20T03:16:26;4.50;;;4.30;;
23119;SDS011;11729;50.836;4.330;2023-12-20T03:18:52;4.55;;;4.35;;
23119;SDS011;11729;50.836;4.330;2023-12-20T03:21:18;4.47;;;4.28;;
23119;SDS011;11729;50.836;4.330;2023-12-20T03:23:43;4.43;;;4.22;;
23119;SDS011;11729;50.836;4.330;2023-12-20T03:26:09;4.50;;;4.30;;
23119;SDS011;11729;50.836;4.330;2023-12-20T03:28:38;4.50;;;4.30;;
23119;SDS011;11729;50.836;4.330;2023-12-20T03:31:04;4.53;;;4.32;;
23119;SDS011;11729;50.836;4.330;2023-12-20T03:33:29;4.60;;;4.40;;
23119;SDS011;11729;50.836;4.330;2023-12-20T03:35:55;4.70;;;4.50;;
23119;SDS011;11729;50.836;4.330;2023-12-20T03:38:21;4.70;;;4.50;;
23119;SDS011;11729;50.836;4.330;2023-12-20T03:40:49;4.80;;;4.60;;
23119;SDS011;11729;50.836;4.330;2023-12-20T03:43:15;4.78;;;4.57;;
23119;SDS011;11729;50.836;4.330;2023-12-20T03:45:41;4.70;;;4.50;;
23119;SDS011;11729;50.836;4.330;2023-12-20T03:48:08;4.60;;;4.40;;
23119;SDS011;11729;50.836;4.330;2023-12-20T03:50:34;4.40;;;4.20;;
23119;SDS011;11729;50.836;4.330;2023-12-20T03:53:00;4.50;;;4.30;;
23119;SDS011;11729;50.836;4.330;2023-12-20T03:55:26;4.50;;;4.30;;
23119;SDS011;11729;50.836;4.330;2023-12-20T03:57:51;4.60;;;4.40;;
23119;SDS011;11729;50.836;4.330;2023-12-20T04:00:17;4.60;;;4.40;;
23119;SDS011;11729;50.836;4.330;2023-12-20T04:02:44;4.70;;;4.45;;
23119;SDS011;11729;50.836;4.330;2023-12-20T04:05:10;4.60;;;4.40;;
23119;SDS011;11729;50.836;4.330;2023-12-20T04:07:36;4.60;;;4.40;;
23119;SDS011;11729;50.836;4.330;2023-12-20T04:10:02;4.85;;;4.65;;
23119;SDS011;11729;50.836;4.330;2023-12-20T04:12:28;4.70;;;4.50;;
23119;SDS011;11729;50.836;4.330;2023-12-20T04:14:56;4.60;;;4.40;;
23119;SDS011;11729;50.836;4.330;2023-12-20T04:17:23;4.60;;;4.40;;
23119;SDS011;11729;50.836;4.330;2023-12-20T04:19:49;4.50;;;4.30;;
23119;SDS011;11729;50.836;4.330;2023-12-20T04:22:15;4.50;;;4.30;;
23119;SDS011;11729;50.836;4.330;2023-12-20T04:24:42;4.60;;;4.40;;
23119;SDS011;11729;50.836;4.330;2023-12-20T04:27:08;4.60;;;4.40;;
23119;SDS011;11729;50.836;4.330;2023-12-20T04:29:34;4.60;;;4.40;;
23119;SDS011;11729;50.836;4.330;2023-12-20T04:32:00;4.60;;;4.40;;
23119;SDS011;11729;50.836;4.330;2023-12-20T04:34:25;4.60;;;4.40;;
23119;SDS011;11729;50.836;4.330;2023-12-20T04:36:51;4.55;;;4.35;;
23119;SDS011;11729;50.836;4.330;2023-12-20T04:39:17;4.53;;;4.32;;
23119;SDS011;11729;50.836;4.330;2023-12-20T04:41:43;4.47;;;4.28;;
23119;SDS011;11729;50.836;4.330;2023-12-20T04:44:09;4.60;;;4.40;;
23119;SDS011;11729;50.836;4.330;2023-12-20T04:46:34;4.60;;;4.40;;
23119;SDS011;11729;50.836;4.330;2023-12-20T04:49:00;4.82;;;4.63;;
23119;SDS011;11729;50.836;4.330;2023-12-20T04:51:26;4.80;;;4.60;;
23119;SDS011;11729;50.836;4.330;2023-12-20T04:53:52;4.60;;;4.40;;
23119;SDS011;11729;50.836;4.330;2023-12-20T04:56:18;4.53;;;4.32;;
23119;SDS011;11729;50.836;4.330;2023-12-20T04:58:43;4.60;;;4.40;;
23119;SDS011;11729;50.836;4.330;2023-12-20T05:01:09;4.50;;;4.30;;
23119;SDS011;11729;50.836;4.330;2023-12-20T05:03:35;15.55;;;5.50;;
23119;SDS011;11729;50.836;4.330;2023-12-20T05:06:01;4.60;;;4.40;;
23119;SDS011;11729;50.836;4.330;2023-12-20T05:08:27;4.93;;;4.72;;
23119;SDS011;11729;50.836;4.330;2023-12-20T05:10:54;4.50;;;4.30;;
23119;SDS011;11729;50.836;4.330;2023-12-20T05:13:19;5.25;;;4.95;;
23119;SDS011;11729;50.836;4.330;2023-12-20T05:15:45;4.40;;;4.20;;
23119;SDS011;11729;50.836;4.330;2023-12-20T05:18:11;4.70;;;4.50;;
23119;SDS011;11729;50.836;4.330;2023-12-20T05:20:37;4.63;;;4.43;;
23119;SDS011;11729;50.836;4.330;2023-12-20T05:23:03;4.55;;;4.35;;
23119;SDS011;11729;50.836;4.330;2023-12-20T05:25:29;4.60;;;4.40;;
23119;SDS011;11729;50.836;4.330;2023-12-20T05:27:55;4.68;;;4.47;;
23119;SDS011;11729;50.836;4.330;2023-12-20T05:30:21;4.68;;;4.47;;
23119;SDS011;11729;50.836;4.330;2023-12-20T05:32:47;4.70;;;4.50;;
23119;SDS011;11729;50.836;4.330;2023-12-20T05:35:13;4.80;;;4.60;;
23119;SDS011;11729;50.836;4.330;2023-12-20T05:37:39;4.60;;;4.40;;
23119;SDS011;11729;50.836;4.330;2023-12-20T05:40:05;4.78;;;4.57;;
23119;SDS011;11729;50.836;4.330;2023-12-20T05:42:31;5.20;;;4.95;;
23119;SDS011;11729;50.836;4.330;2023-12-20T05:44:56;4.90;;;4.70;;
23119;SDS011;11729;50.836;4.330;2023-12-20T05:47:22;4.93;;;4.72;;
23119;SDS011;11729;50.836;4.330;2023-12-20T05:49:48;4.90;;;4.70;;
23119;SDS011;11729;50.836;4.330;2023-12-20T05:52:15;4.88;;;4.68;;
23119;SDS011;11729;50.836;4.330;2023-12-20T05:54:40;19.08;;;5.65;;
23119;SDS011;11729;50.836;4.330;2023-12-20T05:57:06;4.95;;;4.75;;
23119;SDS011;11729;50.836;4.330;2023-12-20T05:59:32;5.00;;;4.80;;
23119;SDS011;11729;50.836;4.330;2023-12-20T06:01:57;5.10;;;4.90;;
23119;SDS011;11729;50.836;4.330;2023-12-20T06:04:23;4.85;;;4.65;;
23119;SDS011;11729;50.836;4.330;2023-12-20T06:06:49;4.85;;;4.65;;
23119;SDS011;11729;50.836;4.330;2023-12-20T06:09:14;4.80;;;4.60;;
23119;SDS011;11729;50.836;4.330;2023-12-20T06:11:40;4.85;;;4.65;;
23119;SDS011;11729;50.836;4.330;2023-12-20T06:14:07;5.03;;;4.82;;
23119;SDS011;11729;50.836;4.330;2023-12-20T06:16:33;4.90;;;4.70;;
23119;SDS011;11729;50.836;4.330;2023-12-20T06:18:58;4.88;;;4.68;;
23119;SDS011;11729;50.836;4.330;2023-12-20T06:21:25;5.95;;;5.65;;
23119;SDS011;11729;50.836;4.330;2023-12-20T06:23:51;4.85;;;4.65;;
23119;SDS011;11729;50.836;4.330;2023-12-20T06:26:16;5.15;;;4.95;;
23119;SDS011;11729;50.836;4.330;2023-12-20T06:28:42;4.70;;;4.50;;
23119;SDS011;11729;50.836;4.330;2023-12-20T06:31:08;4.60;;;4.40;;
23119;SDS011;11729;50.836;4.330;2023-12-20T06:33:34;4.60;;;4.40;;
23119;SDS011;11729;50.836;4.330;2023-12-20T06:35:59;6.10;;;5.63;;
23119;SDS011;11729;50.836;4.330;2023-12-20T06:38:26;4.65;;;4.45;;
23119;SDS011;11729;50.836;4.330;2023-12-20T06:40:51;4.60;;;4.40;;
23119;SDS011;11729;50.836;4.330;2023-12-20T06:43:17;6.82;;;6.32;;
23119;SDS011;11729;50.836;4.330;2023-12-20T06:45:43;4.82;;;4.63;;
23119;SDS011;11729;50.836;4.330;2023-12-20T06:48:08;4.78;;;4.57;;
23119;SDS011;11729;50.836;4.330;2023-12-20T06:50:36;4.70;;;4.50;;
23119;SDS011;11729;50.836;4.330;2023-12-20T06:53:05;4.90;;;4.70;;
23119;SDS011;11729;50.836;4.330;2023-12-20T06:55:32;5.22;;;4.93;;
23119;SDS011;11729;50.836;4.330;2023-12-20T06:58:00;5.47;;;5.22;;
23119;SDS011;11729;50.836;4.330;2023-12-20T07:00:26;4.85;;;4.65;;
23119;SDS011;11729;50.836;4.330;2023-12-20T07:02:52;5.10;;;4.90;;
23119;SDS011;11729;50.836;4.330;2023-12-20T07:05:17;5.78;;;5.45;;
23119;SDS011;11729;50.836;4.330;2023-12-20T07:07:45;5.00;;;4.80;;
23119;SDS011;11729;50.836;4.330;2023-12-20T07:10:13;5.18;;;4.97;;
23119;SDS011;11729;50.836;4.330;2023-12-20T07:12:39;5.40;;;5.20;;
23119;SDS011;11729;50.836;4.330;2023-12-20T07:15:05;5.18;;;4.97;;
23119;SDS011;11729;50.836;4.330;2023-12-20T07:17:32;5.20;;;5.00;;
23119;SDS011;11729;50.836;4.330;2023-12-20T07:19:58;5.20;;;5.00;;
23119;SDS011;11729;50.836;4.330;2023-12-20T07:22:28;5.10;;;4.90;;
23119;SDS011;11729;50.836;4.330;2023-12-20T07:27:23;22.15;;;8.10;;
23119;SDS011;11729;50.836;4.330;2023-12-20T07:29:48;24.63;;;8.65;;
23119;SDS011;11729;50.836;4.330;2023-12-20T07:32:14;23.05;;;8.73;;
23119;SDS011;11729;50.836;4.330;2023-12-20T07:34:39;20.60;;;7.90;;
23119;SDS011;11729;50.836;4.330;2023-12-20T07:37:05;19.10;;;8.98;;
23119;SDS011;11729;50.836;4.330;2023-12-20T07:39:30;21.63;;;9.00;;
23119;SDS011;11729;50.836;4.330;2023-12-20T07:41:56;20.25;;;8.25;;
23119;SDS011;11729;50.836;4.330;2023-12-20T07:44:22;25.65;;;8.55;;
23119;SDS011;11729;50.836;4.330;2023-12-20T07:46:48;24.67;;;8.93;;
23119;SDS011;11729;50.836;4.330;2023-12-20T07:49:15;31.40;;;9.18;;
23119;SDS011;11729;50.836;4.330;2023-12-20T07:51:40;26.50;;;9.18;;
23119;SDS011;11729;50.836;4.330;2023-12-20T07:54:06;21.58;;;8.32;;
23119;SDS011;11729;50.836;4.330;2023-12-20T07:56:33;17.15;;;8.93;;
23119;SDS011;11729;50.836;4.330;2023-12-20T07:58:58;17.75;;;8.43;;
23119;SDS011;11729;50.836;4.330;2023-12-20T08:01:24;17.75;;;8.10;;
23119;SDS011;11729;50.836;4.330;2023-12-20T08:03:49;28.50;;;9.02;;
23119;SDS011;11729;50.836;4.330;2023-12-20T08:06:16;29.95;;;9.18;;
23119;SDS011;11729;50.836;4.330;2023-12-20T08:08:42;26.77;;;9.30;;
23119;SDS011;11729;50.836;4.330;2023-12-20T08:11:09;17.20;;;8.88;;
23119;SDS011;11729;50.836;4.330;2023-12-20T08:13:34;23.35;;;9.13;;
23119;SDS011;11729;50.836;4.330;2023-12-20T08:16:01;26.80;;;9.20;;
23119;SDS011;11729;50.836;4.330;2023-12-20T08:18:28;24.35;;;8.95;;
23119;SDS011;11729;50.836;4.330;2023-12-20T08:20:54;34.47;;;13.43;;
23119;SDS011;11729;50.836;4.330;2023-12-20T08:23:20;37.45;;;12.88;;
23119;SDS011;11729;50.836;4.330;2023-12-20T08:25:46;28.52;;;9.40;;
23119;SDS011;11729;50.836;4.330;2023-12-20T08:28:14;32.33;;;9.30;;
23119;SDS011;11729;50.836;4.330;2023-12-20T08:30:39;18.88;;;8.60;;
23119;SDS011;11729;50.836;4.330;2023-12-20T08:33:05;33.50;;;9.65;;
23119;SDS011;11729;50.836;4.330;2023-12-20T08:35:36;24.85;;;8.50;;
23119;SDS011;11729;50.836;4.330;2023-12-20T08:38:01;19.88;;;8.13;;
23119;SDS011;11729;50.836;4.330;2023-12-20T08:40:29;25.27;;;8.35;;
23119;SDS011;11729;50.836;4.330;2023-12-20T08:42:55;18.88;;;8.23;;
23119;SDS011;11729;50.836;4.330;2023-12-20T08:45:20;22.10;;;8.48;;
23119;SDS011;11729;50.836;4.330;2023-12-20T08:47:46;21.17;;;8.40;;
23119;SDS011;11729;50.836;4.330;2023-12-20T08:50:11;19.15;;;7.65;;
23119;SDS011;11729;50.836;4.330;2023-12-20T08:52:37;26.58;;;7.60;;
23119;SDS011;11729;50.836;4.330;2023-12-20T08:55:03;21.35;;;8.18;;
23119;SDS011;11729;50.836;4.330;2023-12-20T08:57:31;29.40;;;8.43;;
23119;SDS011;11729;50.836;4.330;2023-12-20T08:59:57;24.75;;;8.32;;
23119;SDS011;11729;50.836;4.330;2023-12-20T09:02:23;25.38;;;8.00;;
23119;SDS011;11729;50.836;4.330;2023-12-20T09:04:48;19.58;;;8.15;;
23119;SDS011;11729;50.836;4.330;2023-12-20T09:07:23;21.50;;;8.45;;
23119;SDS011;11729;50.836;4.330;2023-12-20T09:09:49;22.90;;;7.78;;
23119;SDS011;11729;50.836;4.330;2023-12-20T09:12:17;21.40;;;8.07;;
23119;SDS011;11729;50.836;4.330;2023-12-20T09:14:44;29.58;;;7.90;;
23119;SDS011;11729;50.836;4.330;2023-12-20T09:17:10;20.95;;;8.02;;
23119;SDS011;11729;50.836;4.330;2023-12-20T09:19:37;21.02;;;8.38;;
23119;SDS011;11729;50.836;4.330;2023-12-20T09:22:03;28.58;;;7.78;;
23119;SDS011;11729;50.836;4.330;2023-12-20T09:24:30;22.50;;;7.95;;
23119;SDS011;11729;50.836;4.330;2023-12-20T09:26:56;26.10;;;9.18;;
23119;SDS011;11729;50.836;4.330;2023-12-20T09:29:21;31.27;;;8.68;;
23119;SDS011;11729;50.836;4.330;2023-12-20T09:31:47;25.98;;;8.05;;
23119;SDS011;11729;50.836;4.330;2023-12-20T09:34:14;22.95;;;7.85;;
23119;SDS011;11729;50.836;4.330;2023-12-20T09:36:40;22.33;;;7.55;;
23119;SDS011;11729;50.836;4.330;2023-12-20T09:39:11;30.92;;;8.15;;
23119;SDS011;11729;50.836;4.330;2023-12-20T09:41:44;32.67;;;8.13;;
23119;SDS011;11729;50.836;4.330;2023-12-20T09:44:15;29.58;;;8.02;;
23119;SDS011;11729;50.836;4.330;2023-12-20T09:46:44;17.60;;;7.63;;
23119;SDS011;11729;50.836;4.330;2023-12-20T09:49:14;20.95;;;7.30;;
23119;SDS011;11729;50.836;4.330;2023-12-20T09:51:40;25.20;;;8.52;;
23119;SDS011;11729;50.836;4.330;2023-12-20T09:54:07;18.02;;;7.53;;
23119;SDS011;11729;50.836;4.330;2023-12-20T09:56:32;26.67;;;8.38;;
23119;SDS011;11729;50.836;4.330;2023-12-20T09:58:59;25.63;;;8.02;;
23119;SDS011;11729;50.836;4.330;2023-12-20T10:01:24;24.05;;;7.57;;
23119;SDS011;11729;50.836;4.330;2023-12-20T10:03:54;20.83;;;7.57;;
23119;SDS011;11729;50.836;4.330;2023-12-20T10:06:20;18.50;;;7.68;;
23119;SDS011;11729;50.836;4.330;2023-12-20T10:08:47;23.48;;;7.70;;
23119;SDS011;11729;50.836;4.330;2023-12-20T10:11:13;23.13;;;7.57;;
23119;SDS011;11729;50.836;4.330;2023-12-20T10:13:39;15.68;;;7.25;;
23119;SDS011;11729;50.836;4.330;2023-12-20T10:16:07;19.25;;;8.10;;
23119;SDS011;11729;50.836;4.330;2023-12-20T10:18:33;21.92;;;8.13;;
23119;SDS011;11729;50.836;4.330;2023-12-20T10:21:00;19.15;;;7.40;;
23119;SDS011;11729;50.836;4.330;2023-12-20T10:23:27;24.15;;;7.82;;
23119;SDS011;11729;50.836;4.330;2023-12-20T10:25:56;22.80;;;8.25;;
23119;SDS011;11729;50.836;4.330;2023-12-20T10:28:26;16.67;;;7.40;;
23119;SDS011;11729;50.836;4.330;2023-12-20T10:30:54;19.38;;;7.07;;
23119;SDS011;11729;50.836;4.330;2023-12-20T10:33:26;16.48;;;7.60;;
23119;SDS011;11729;50.836;4.330;2023-12-20T10:35:55;15.48;;;6.88;;
23119;SDS011;11729;50.836;4.330;2023-12-20T10:38:21;16.37;;;7.43;;
23119;SDS011;11729;50.836;4.330;2023-12-20T10:40:48;21.17;;;7.37;;
23119;SDS011;11729;50.836;4.330;2023-12-20T10:43:19;16.50;;;7.75;;
23119;SDS011;11729;50.836;4.330;2023-12-20T10:45:45;17.83;;;6.90;;
23119;SDS011;11729;50.836;4.330;2023-12-20T10:48:17;15.00;;;6.68;;
23119;SDS011;11729;50.836;4.330;2023-12-20T10:50:45;16.42;;;6.35;;
23119;SDS011;11729;50.836;4.330;2023-12-20T10:53:11;18.52;;;7.38;;
23119;SDS011;11729;50.836;4.330;2023-12-20T10:55:38;24.27;;;7.43;;
23119;SDS011;11729;50.836;4.330;2023-12-20T10:58:06;23.55;;;11.23;;
23119;SDS011;11729;50.836;4.330;2023-12-20T11:00:34;22.35;;;7.32;;
23119;SDS011;11729;50.836;4.330;2023-12-20T11:03:04;18.70;;;7.90;;
23119;SDS011;11729;50.836;4.330;2023-12-20T11:08:17;20.10;;;7.35;;
23119;SDS011;11729;50.836;4.330;2023-12-20T11:11:21;22.33;;;8.05;;
23119;SDS011;11729;50.836;4.330;2023-12-20T11:13:59;13.02;;;6.63;;
23119;SDS011;11729;50.836;4.330;2023-12-20T11:16:30;16.27;;;6.60;;
23119;SDS011;11729;50.836;4.330;2023-12-20T11:19:02;16.60;;;7.65;;
23119;SDS011;11729;50.836;4.330;2023-12-20T11:21:32;16.23;;;6.78;;
23119;SDS011;11729;50.836;4.330;2023-12-20T11:23:59;17.92;;;7.63;;
23119;SDS011;11729;50.836;4.330;2023-12-20T11:26:28;18.55;;;7.20;;
23119;SDS011;11729;50.836;4.330;2023-12-20T11:29:02;20.77;;;7.22;;
23119;SDS011;11729;50.836;4.330;2023-12-20T11:31:59;20.75;;;7.15;;
23119;SDS011;11729;50.836;4.330;2023-12-20T11:34:27;14.68;;;7.63;;
23119;SDS011;11729;50.836;4.330;2023-12-20T11:36:59;20.33;;;7.13;;
23119;SDS011;11729;50.836;4.330;2023-12-20T11:39:26;16.58;;;7.13;;
23119;SDS011;11729;50.836;4.330;2023-12-20T11:41:54;16.23;;;7.22;;
23119;SDS011;11729;50.836;4.330;2023-12-20T11:44:21;15.77;;;7.43;;
23119;SDS011;11729;50.836;4.330;2023-12-20T11:46:47;19.23;;;7.07;;
23119;SDS011;11729;50.836;4.330;2023-12-20T11:49:14;15.80;;;7.22;;
23119;SDS011;11729;50.836;4.330;2023-12-20T11:51:42;19.40;;;7.15;;
23119;SDS011;11729;50.836;4.330;2023-12-20T11:54:10;17.17;;;7.22;;
23119;SDS011;11729;50.836;4.330;2023-12-20T11:56:36;17.83;;;7.63;;
23119;SDS011;11729;50.836;4.330;2023-12-20T11:59:02;17.00;;;7.20;;
23119;SDS011;11729;50.836;4.330;2023-12-20T12:01:28;19.45;;;7.45;;
23119;SDS011;11729;50.836;4.330;2023-12-20T12:04:06;13.98;;;6.82;;
23119;SDS011;11729;50.836;4.330;2023-12-20T12:06:32;18.30;;;7.50;;
23119;SDS011;11729;50.836;4.330;2023-12-20T12:08:58;15.80;;;6.65;;
23119;SDS011;11729;50.836;4.330;2023-12-20T12:11:24;18.55;;;7.07;;
23119;SDS011;11729;50.836;4.330;2023-12-20T12:13:50;19.30;;;7.22;;
23119;SDS011;11729;50.836;4.330;2023-12-20T12:16:22;19.58;;;7.10;;
23119;SDS011;11729;50.836;4.330;2023-12-20T12:18:54;12.60;;;6.97;;
23119;SDS011;11729;50.836;4.330;2023-12-20T12:21:21;17.33;;;7.38;;
23119;SDS011;11729;50.836;4.330;2023-12-20T12:23:47;25.45;;;7.45;;
23119;SDS011;11729;50.836;4.330;2023-12-20T12:26:14;22.98;;;6.93;;
23119;SDS011;11729;50.836;4.330;2023-12-20T12:28:40;17.15;;;6.45;;
23119;SDS011;11729;50.836;4.330;2023-12-20T12:31:07;25.33;;;7.50;;
23119;SDS011;11729;50.836;4.330;2023-12-20T12:33:33;28.48;;;7.30;;
23119;SDS011;11729;50.836;4.330;2023-12-20T12:36:00;23.33;;;7.07;;
23119;SDS011;11729;50.836;4.330;2023-12-20T12:38:26;18.80;;;6.70;;
23119;SDS011;11729;50.836;4.330;2023-12-20T12:40:54;15.85;;;6.90;;
23119;SDS011;11729;50.836;4.330;2023-12-20T12:43:20;19.88;;;7.35;;
23119;SDS011;11729;50.836;4.330;2023-12-20T12:45:47;16.97;;;6.37;;
23119;SDS011;11729;50.836;4.330;2023-12-20T12:48:13;15.13;;;6.38;;
23119;SDS011;11729;50.836;4.330;2023-12-20T12:50:39;22.85;;;7.13;;
23119;SDS011;11729;50.836;4.330;2023-12-20T12:53:05;21.02;;;7.53;;
23119;SDS011;11729;50.836;4.330;2023-12-20T12:55:31;19.92;;;7.60;;
23119;SDS011;11729;50.836;4.330;2023-12-20T12:57:56;14.77;;;7.10;;
23119;SDS011;11729;50.836;4.330;2023-12-20T13:00:22;18.67;;;7.07;;
23119;SDS011;11729;50.836;4.330;2023-12-20T13:02:49;21.08;;;7.10;;
23119;SDS011;11729;50.836;4.330;2023-12-20T13:05:14;19.48;;;6.45;;
23119;SDS011;11729;50.836;4.330;2023-12-20T13:07:40;17.30;;;7.40;;
23119;SDS011;11729;50.836;4.330;2023-12-20T13:10:06;19.42;;;6.82;;
23119;SDS011;11729;50.836;4.330;2023-12-20T13:12:32;17.67;;;7.57;;
23119;SDS011;11729;50.836;4.330;2023-12-20T13:14:57;18.05;;;7.00;;
23119;SDS011;11729;50.836;4.330;2023-12-20T13:17:23;17.17;;;6.90;;
23119;SDS011;11729;50.836;4.330;2023-12-20T13:19:49;26.98;;;11.10;;
23119;SDS011;11729;50.836;4.330;2023-12-20T13:22:14;20.65;;;8.60;;
23119;SDS011;11729;50.836;4.330;2023-12-20T13:24:41;16.92;;;7.03;;
23119;SDS011;11729;50.836;4.330;2023-12-20T13:27:08;23.73;;;7.38;;
23119;SDS011;11729;50.836;4.330;2023-12-20T13:29:35;17.00;;;7.20;;
23119;SDS011;11729;50.836;4.330;2023-12-20T13:32:00;22.90;;;6.93;;
23119;SDS011;11729;50.836;4.330;2023-12-20T13:34:26;19.13;;;6.65;;
23119;SDS011;11729;50.836;4.330;2023-12-20T13:36:52;14.90;;;7.00;;
23119;SDS011;11729;50.836;4.330;2023-12-20T13:39:17;17.48;;;6.85;;
23119;SDS011;11729;50.836;4.330;2023-12-20T13:41:43;20.60;;;6.88;;
23119;SDS011;11729;50.836;4.330;2023-12-20T13:44:09;23.15;;;7.32;;
23119;SDS011;11729;50.836;4.330;2023-12-20T13:46:35;21.35;;;7.03;;
23119;SDS011;11729;50.836;4.330;2023-12-20T13:49:02;18.80;;;6.95;;
23119;SDS011;11729;50.836;4.330;2023-12-20T13:51:27;18.75;;;7.78;;
23119;SDS011;11729;50.836;4.330;2023-12-20T13:53:53;18.52;;;6.78;;
23119;SDS011;11729;50.836;4.330;2023-12-20T13:56:19;15.75;;;7.13;;
23119;SDS011;11729;50.836;4.330;2023-12-20T13:58:45;17.85;;;6.93;;
23119;SDS011;11729;50.836;4.330;2023-12-20T14:01:12;19.88;;;6.93;;
23119;SDS011;11729;50.836;4.330;2023-12-20T14:03:37;21.08;;;6.30;;
23119;SDS011;11729;50.836;4.330;2023-12-20T14:06:03;15.80;;;6.95;;
23119;SDS011;11729;50.836;4.330;2023-12-20T14:08:29;14.18;;;6.78;;
23119;SDS011;11729;50.836;4.330;2023-12-20T14:10:55;14.50;;;6.28;;
23119;SDS011;11729;50.836;4.330;2023-12-20T14:13:20;21.23;;;6.57;;
23119;SDS011;11729;50.836;4.330;2023-12-20T14:15:46;21.95;;;7.07;;
23119;SDS011;11729;50.836;4.330;2023-12-20T14:18:14;18.48;;;6.80;;
23119;SDS011;11729;50.836;4.330;2023-12-20T14:20:40;23.85;;;7.03;;
23119;SDS011;11729;50.836;4.330;2023-12-20T14:23:07;18.52;;;6.60;;
23119;SDS011;11729;50.836;4.330;2023-12-20T14:25:34;20.10;;;6.55;;
23119;SDS011;11729;50.836;4.330;2023-12-20T14:28:03;22.90;;;7.20;;
23119;SDS011;11729;50.836;4.330;2023-12-20T14:30:29;20.35;;;7.07;;
23119;SDS011;11729;50.836;4.330;2023-12-20T14:32:55;19.75;;;7.03;;
23119;SDS011;11729;50.836;4.330;2023-12-20T14:35:21;16.02;;;6.68;;
23119;SDS011;11729;50.836;4.330;2023-12-20T14:37:46;18.48;;;6.90;;
23119;SDS011;11729;50.836;4.330;2023-12-20T14:40:12;25.48;;;8.65;;
23119;SDS011;11729;50.836;4.330;2023-12-20T14:42:41;24.85;;;8.23;;
23119;SDS011;11729;50.836;4.330;2023-12-20T14:45:08;26.23;;;8.70;;